x

Boston 16 Nm East Of Boston, Ma (44013) Wave Buoy

11:50 - Tue 19th Aug 2014 All times are EDT. -4 hours from GMT.

  • Sig Wave height 0.7ft
  • Average Period 4s
  • Wind
    9mph, 11mph gusts
  • Sea Temp 65°f
  • Air Temp 65°f
  • Sea Pressure 1014.8mb
  • Boston 16 Nm East Of Boston, Ma
  • Boston 16 Nm East Of Boston, Ma

More Historic Weather Station data

Upgrade to MSW Pro to gain access to the past 30 days of data for over 8000 Wavebouys and Weather Stations around the globe.

Join Pro

Comparision Forecast

View Surf forecast
   
mar. 08/19 11:50 0.7ft  -  4s 9 11 mph 1014.8mb 65f 65f
10:50 1ft 8s 3s 7 9 mph 1014.4mb 65f 65f
9:50 1ft 9s 4s 11 13 mph 1014.1mb 65f 65f
8:50 1ft 9s 3s 9 11 mph 1014mb 65f 65f
7:50 1ft 10s 3s 11 13 mph 1013.4mb 66f 65f
6:50 1ft 9s 3s 13
mph
1013.5mb 66f 65f
5:50 1ft 10s 4s 11 13 mph 1013.3mb 66f 65f
4:50 1ft 9s 4s 11
mph
1013.2mb 66f 65f
3:50 1ft 9s 5s 11 13 mph 1013mb 66f 65f
2:50 1ft 10s 5s 11
mph
1013.4mb 67f 65f
1:50 1ft 9s 5s 7
mph
1013.6mb 68f 65f
12:50 1ft 9s 5s 2 4 mph 1014mb 67f 64f
11:50 1ft 8s 5s 2 4 mph 1014.3mb 66f 63f
10:50 1ft 8s 5s 4
mph
1014mb 65f 61f
9:50 1ft 9s 5s 4
mph
1013.6mb 65f 61f
8:50 1ft 9s 4s 4 7 mph 1013.2mb 65f 61f
7:50 1ft 9s 4s 7 9 mph 1013mb 65f 61f
6:50 1ft 10s 4s 9 11 mph 1012.6mb 65f 61f
5:50 1.3ft 9s 4s 9 11 mph 1012.3mb 65f 61f
4:50 1.3ft 8s 4s 9
mph
1011.9mb 65f 62f
3:50 1.3ft 10s 4s 11 13 mph 1011.5mb 65f 62f
2:50 1.3ft 10s 4s 11 13 mph 1011.7mb 65f 62f
1:50 1.3ft 9s 4s 11 13 mph 1011.5mb 65f 63f
12:50 1.3ft 9s 4s 13 18 mph 1011.8mb 65f 64f
lun. 08/18 11:50 1.3ft 9s 6s 11 13 mph 1011.8mb 66f 65f
10:50 1.3ft 9s 7s 11 13 mph 1011.7mb 66f 66f
9:50 1.3ft 9s 7s 7 9 mph 1011.4mb 65f 67f
8:50 1.3ft 9s 6s 4
mph
1011mb 66f 66f
7:50 1.3ft 10s 6s 4 7 mph 1010.5mb 66f 66f
6:50 1.3ft 9s 6s 9
mph
1009.9mb 66f 66f
5:50 1.6ft 10s 7s 4
mph
1009.6mb 66f 68f
4:50 1.3ft 8s 6s 7
mph
1009.2mb 67f 68f
3:50 1.3ft 8s 6s 7 9 mph 1009.1mb 67f 67f
2:50 1.3ft 9s 5s 4
mph
1009.3mb 67f 68f
1:50 1.3ft 8s 4s 4
mph
1009.4mb 66f 68f
12:50 1.3ft 9s 4s 4
mph
1009.6mb 65f 67f
11:50 1.3ft 9s 4s 7 9 mph 1010mb 65f 66f
10:50 1.6ft 3s 3s 11 13 mph 1010.1mb 64f 65f
9:50 1.6ft 10s 3s 13 16 mph 1009.7mb 64f 65f
8:50 1.6ft 3s 3s 13 16 mph 1009.9mb 64f 64f
7:50 2ft 9s 3s 16 20 mph 1009.8mb 64f 64f
6:50 1.6ft 9s 4s 18 20 mph 1009.3mb 64f 64f
5:50 2ft 9s 4s 16 18 mph 1008.9mb 64f 63f
4:50 2ft 8s 4s 16 20 mph 1008.6mb 64f 64f
3:50 2ft 9s 4s 16 18 mph 1008.3mb 64f 64f
2:50 2ft 9s 4s 16 18 mph 1008.9mb 65f 65f
1:50 1.6ft 8s 5s 13 16 mph 1009.1mb 65f 65f
12:50 1.3ft 8s 6s 13 16 mph 1009.7mb 65f 65f
dim. 08/17 11:50 1.3ft 9s 6s 9 11 mph 1010mb 65f 66f
10:50 1.3ft 9s 5s 9 11 mph 1010.2mb 66f 67f
9:50 1.6ft 10s 4s 11 13 mph 1010mb 66f 67f
8:50 1.3ft 9s 5s 13 16 mph 1009.6mb 65f 68f
7:50 1.3ft 9s 6s 11 13 mph 1008.8mb 65f 69f
6:50 1.3ft 8s 6s 2
mph
1008.4mb 65f 68f
5:50 1.3ft 8s 5s 4 7 mph 1008.3mb 65f 68f
4:50 1.3ft 9s 5s 7 11 mph 1008.1mb 65f 68f
3:50 1.6ft 8s 5s 4
mph
1007.9mb 65f 71f
2:50 1.3ft 8s 5s 7
mph
1008.1mb 65f 71f
1:50 1.3ft 8s 5s 4 7 mph 1008.4mb 65f 69f
12:50 1.6ft 7s 6s 7
mph
1008.6mb 66f 69f
11:50 1.3ft 7s 5s 9 11 mph 1009.2mb 65f 69f
10:50 1.6ft 7s 6s 7
mph
1009.7mb 65f 68f
9:50 1.3ft 8s 6s 4
mph
1010mb 64f 66f
8:50 1.3ft 7s 6s 9
mph
1010.2mb 64f 65f
7:50 1.3ft 7s 6s 9 11 mph 1010.5mb 64f 64f
6:50 1.3ft 8s 6s 7
mph
1010.6mb 64f 64f
5:50 1.3ft 8s 6s 7 9 mph 1010.6mb 64f 64f
4:50 1.3ft 8s 5s 7 9 mph 1010.9mb 64f 64f
3:50 1.3ft 7s 6s 7 9 mph 1011.2mb 64f 64f
2:50 1ft 8s 5s 9 11 mph 1011.5mb 64f 64f
1:50 1.3ft 7s 5s 9
mph
1012.3mb 64f 64f
12:50 1ft 8s 4s 9
mph
1013.2mb 64f 65f
sam. 08/16 11:50 1.3ft 7s 4s 11 13 mph 1013.3mb 64f 65f
10:50 1.3ft 8s 4s 11 13 mph 1013.7mb 64f 66f
9:50 1.3ft 8s 4s 13
mph
1013.7mb 64f 67f
8:50 1.3ft 7s 4s 11 13 mph 1013.9mb 64f 67f
7:50 1.3ft 7s 4s 9 11 mph 1013.6mb 64f 68f
6:50 1.3ft 8s 4s 9 11 mph 1013.3mb 65f 69f
5:50 1.3ft 7s 4s 7
mph
1013.2mb 65f 69f
4:50 1.3ft 7s 4s 2 4 mph 1013.4mb 65f 70f
3:50 1.6ft 7s 4s 4 7 mph 1013.4mb 65f 71f
2:50 1.6ft 7s 4s 7 9 mph 1013.8mb 65f 69f
1:50 1.6ft 8s 4s 11
mph
1014.3mb 64f 69f
12:50 1.3ft 7s 5s 11 13 mph 1014.7mb 65f 68f
11:50 1.3ft 8s 5s 7 9 mph 1015.3mb 64f 67f
10:50 1.3ft 8s 5s 9 11 mph 1015.5mb 64f 66f
9:50 1.3ft 8s 4s 11
mph
1015.2mb 64f 65f
8:50 1.3ft 8s 3s 11 13 mph 1015mb 64f 64f
7:50 1.3ft 8s 4s 16
mph
1014.7mb 64f 62f
6:50 1.3ft 8s 4s 13 16 mph 1014.1mb 64f 61f
5:50 1.6ft 8s 4s 11
mph
1013.8mb 64f 61f